sensor_id;sensor_type;location;lat;lon;timestamp;temperature;humidity
18894;DHT22;9579;49.488;8.226;2023-04-25T04:14:20;11.20;99.90
18894;DHT22;9579;49.488;8.226;2023-04-25T04:17:07;11.20;99.90
18894;DHT22;9579;49.488;8.226;2023-04-25T04:19:54;11.20;99.90
18894;DHT22;9579;49.488;8.226;2023-04-25T04:22:41;11.10;99.90
18894;DHT22;9579;49.488;8.226;2023-04-25T04:25:28;11.10;99.90
18894;DHT22;9579;49.488;8.226;2023-04-25T04:28:15;11.10;99.90
18894;DHT22;9579;49.488;8.226;2023-04-25T04:31:04;11.20;99.90
18894;DHT22;9579;49.488;8.226;2023-04-25T04:33:53;11.30;99.90
18894;DHT22;9579;49.488;8.226;2023-04-25T04:36:40;11.40;99.90
18894;DHT22;9579;49.488;8.226;2023-04-25T04:39:27;11.50;99.90
18894;DHT22;9579;49.488;8.226;2023-04-25T04:42:14;11.50;99.90
18894;DHT22;9579;49.488;8.226;2023-04-25T04:45:01;11.50;99.90
18894;DHT22;9579;49.488;8.226;2023-04-25T04:47:51;11.50;99.90
18894;DHT22;9579;49.488;8.226;2023-04-25T04:50:38;11.60;99.90
18894;DHT22;9579;49.488;8.226;2023-04-25T04:53:25;11.60;99.90
18894;DHT22;9579;49.488;8.226;2023-04-25T04:56:12;11.70;99.90
18894;DHT22;9579;49.488;8.226;2023-04-25T04:58:59;11.70;99.90
18894;DHT22;9579;49.488;8.226;2023-04-25T05:01:47;11.70;99.90
18894;DHT22;9579;49.488;8.226;2023-04-25T05:04:36;11.80;99.90
18894;DHT22;9579;49.488;8.226;2023-04-25T05:07:23;11.80;99.90
18894;DHT22;9579;49.488;8.226;2023-04-25T05:10:11;11.90;99.90
18894;DHT22;9579;49.488;8.226;2023-04-25T05:12:58;12.00;99.90
18894;DHT22;9579;49.488;8.226;2023-04-25T05:15:46;12.20;99.90
18894;DHT22;9579;49.488;8.226;2023-04-25T05:18:39;12.20;99.90
18894;DHT22;9579;49.488;8.226;2023-04-25T05:21:30;12.20;99.90
18894;DHT22;9579;49.488;8.226;2023-04-25T05:24:18;12.20;99.90
18894;DHT22;9579;49.488;8.226;2023-04-25T05:27:05;12.20;99.90
18894;DHT22;9579;49.488;8.226;2023-04-25T05:29:52;12.20;99.90
18894;DHT22;9579;49.488;8.226;2023-04-25T05:32:39;12.20;99.90
18894;DHT22;9579;49.488;8.226;2023-04-25T05:35:26;12.10;99.90
18894;DHT22;9579;49.488;8.226;2023-04-25T05:38:14;12.10;99.90
18894;DHT22;9579;49.488;8.226;2023-04-25T05:41:01;12.10;99.90
18894;DHT22;9579;49.488;8.226;2023-04-25T05:43:48;12.20;99.90
18894;DHT22;9579;49.488;8.226;2023-04-25T05:46:35;12.20;99.90
18894;DHT22;9579;49.488;8.226;2023-04-25T05:49:22;12.20;99.90
18894;DHT22;9579;49.488;8.226;2023-04-25T05:52:09;12.20;99.90
18894;DHT22;9579;49.488;8.226;2023-04-25T05:54:58;12.20;99.90
18894;DHT22;9579;49.488;8.226;2023-04-25T05:57:51;12.20;99.90
18894;DHT22;9579;49.488;8.226;2023-04-25T06:00:38;12.30;99.90
18894;DHT22;9579;49.488;8.226;2023-04-25T06:03:27;12.20;99.90
18894;DHT22;9579;49.488;8.226;2023-04-25T06:06:14;12.30;99.90
18894;DHT22;9579;49.488;8.226;2023-04-25T06:09:01;12.30;99.90
18894;DHT22;9579;49.488;8.226;2023-04-25T06:11:51;12.30;99.90
18894;DHT22;9579;49.488;8.226;2023-04-25T06:14:38;12.40;99.90
18894;DHT22;9579;49.488;8.226;2023-04-25T06:17:25;12.50;99.90
18894;DHT22;9579;49.488;8.226;2023-04-25T06:20:12;12.50;99.90
18894;DHT22;9579;49.488;8.226;2023-04-25T06:23:02;12.60;99.90
18894;DHT22;9579;49.488;8.226;2023-04-25T06:25:49;12.60;99.90
18894;DHT22;9579;49.488;8.226;2023-04-25T06:28:42;12.60;99.90
18894;DHT22;9579;49.488;8.226;2023-04-25T06:31:48;12.60;99.90
18894;DHT22;9579;49.488;8.226;2023-04-25T06:35:02;12.50;99.90
18894;DHT22;9579;49.488;8.226;2023-04-25T06:37:58;12.60;99.90
18894;DHT22;9579;49.488;8.226;2023-04-25T06:40:47;12.50;99.90
18894;DHT22;9579;49.488;8.226;2023-04-25T06:43:35;12.50;99.90
18894;DHT22;9579;49.488;8.226;2023-04-25T06:46:26;12.40;99.90
18894;DHT22;9579;49.488;8.226;2023-04-25T06:49:15;12.40;99.20
18894;DHT22;9579;49.488;8.226;2023-04-25T06:52:04;12.20;99.10
18894;DHT22;9579;49.488;8.226;2023-04-25T06:54:51;12.30;99.50
18894;DHT22;9579;49.488;8.226;2023-04-25T06:57:38;12.30;99.70
18894;DHT22;9579;49.488;8.226;2023-04-25T07:00:25;12.30;99.50
18894;DHT22;9579;49.488;8.226;2023-04-25T07:03:13;12.30;99.90
18894;DHT22;9579;49.488;8.226;2023-04-25T07:06:00;12.30;99.90
18894;DHT22;9579;49.488;8.226;2023-04-25T07:08:47;12.20;99.90
18894;DHT22;9579;49.488;8.226;2023-04-25T07:11:34;12.20;99.90
18894;DHT22;9579;49.488;8.226;2023-04-25T07:14:21;12.00;99.90
18894;DHT22;9579;49.488;8.226;2023-04-25T07:17:08;12.10;99.90
18894;DHT22;9579;49.488;8.226;2023-04-25T07:19:57;12.10;99.90
18894;DHT22;9579;49.488;8.226;2023-04-25T07:22:44;12.00;99.90
18894;DHT22;9579;49.488;8.226;2023-04-25T07:25:31;11.90;99.90
18894;DHT22;9579;49.488;8.226;2023-04-25T07:28:18;12.00;99.90
18894;DHT22;9579;49.488;8.226;2023-04-25T07:31:05;12.00;99.90
18894;DHT22;9579;49.488;8.226;2023-04-25T07:33:52;12.00;99.90
18894;DHT22;9579;49.488;8.226;2023-04-25T07:36:41;12.10;99.90
18894;DHT22;9579;49.488;8.226;2023-04-25T07:39:28;12.20;99.90
18894;DHT22;9579;49.488;8.226;2023-04-25T07:42:15;12.20;99.90
18894;DHT22;9579;49.488;8.226;2023-04-25T07:45:02;12.20;99.90
18894;DHT22;9579;49.488;8.226;2023-04-25T07:47:49;12.30;99.90
18894;DHT22;9579;49.488;8.226;2023-04-25T07:50:37;12.30;99.90
18894;DHT22;9579;49.488;8.226;2023-04-25T07:53:25;12.40;99.90
18894;DHT22;9579;49.488;8.226;2023-04-25T07:56:12;12.30;99.90
18894;DHT22;9579;49.488;8.226;2023-04-25T07:58:59;12.30;99.90
18894;DHT22;9579;49.488;8.226;2023-04-25T08:01:46;12.30;99.90
18894;DHT22;9579;49.488;8.226;2023-04-25T08:04:33;12.30;99.90
18894;DHT22;9579;49.488;8.226;2023-04-25T08:07:20;12.40;99.90
18894;DHT22;9579;49.488;8.226;2023-04-25T08:10:09;12.40;99.90
18894;DHT22;9579;49.488;8.226;2023-04-25T08:12:56;12.50;99.90
18894;DHT22;9579;49.488;8.226;2023-04-25T08:15:43;12.60;99.90
18894;DHT22;9579;49.488;8.226;2023-04-25T08:18:30;12.70;99.70
18894;DHT22;9579;49.488;8.226;2023-04-25T08:21:17;12.80;98.60
18894;DHT22;9579;49.488;8.226;2023-04-25T08:24:05;12.80;99.30
18894;DHT22;9579;49.488;8.226;2023-04-25T08:26:53;12.90;98.60
18894;DHT22;9579;49.488;8.226;2023-04-25T08:29:41;13.00;98.80
18894;DHT22;9579;49.488;8.226;2023-04-25T08:32:28;13.00;97.90
18894;DHT22;9579;49.488;8.226;2023-04-25T08:35:15;13.00;98.00
18894;DHT22;9579;49.488;8.226;2023-04-25T08:38:03;13.00;98.30
18894;DHT22;9579;49.488;8.226;2023-04-25T08:40:50;13.10;98.60
18894;DHT22;9579;49.488;8.226;2023-04-25T08:43:42;13.20;98.60
18894;DHT22;9579;49.488;8.226;2023-04-25T08:46:30;13.40;98.20
18894;DHT22;9579;49.488;8.226;2023-04-25T08:49:18;13.70;97.80
18894;DHT22;9579;49.488;8.226;2023-04-25T08:52:06;13.90;97.20
18894;DHT22;9579;49.488;8.226;2023-04-25T08:54:57;14.10;96.60
18894;DHT22;9579;49.488;8.226;2023-04-25T08:57:44;14.20;96.30
18894;DHT22;9579;49.488;8.226;2023-04-25T09:00:42;14.10;96.20
18894;DHT22;9579;49.488;8.226;2023-04-25T09:03:31;14.00;96.50
18894;DHT22;9579;49.488;8.226;2023-04-25T09:06:28;14.10;96.70
18894;DHT22;9579;49.488;8.226;2023-04-25T09:09:18;14.00;96.80
18894;DHT22;9579;49.488;8.226;2023-04-25T09:12:06;14.20;95.50
18894;DHT22;9579;49.488;8.226;2023-04-25T09:15:05;14.40;95.00
18894;DHT22;9579;49.488;8.226;2023-04-25T09:17:56;14.60;94.50
18894;DHT22;9579;49.488;8.226;2023-04-25T09:20:47;14.50;93.30
18894;DHT22;9579;49.488;8.226;2023-04-25T09:23:41;14.50;93.80
18894;DHT22;9579;49.488;8.226;2023-04-25T09:26:28;14.80;93.80
18894;DHT22;9579;49.488;8.226;2023-04-25T09:29:17;14.90;93.10
18894;DHT22;9579;49.488;8.226;2023-04-25T09:32:16;15.30;93.30
18894;DHT22;9579;49.488;8.226;2023-04-25T09:35:05;15.30;92.50
18894;DHT22;9579;49.488;8.226;2023-04-25T09:37:53;15.30;92.20
18894;DHT22;9579;49.488;8.226;2023-04-25T09:40:41;15.40;92.70
18894;DHT22;9579;49.488;8.226;2023-04-25T09:43:28;15.50;91.60
18894;DHT22;9579;49.488;8.226;2023-04-25T09:46:15;15.40;91.60
18894;DHT22;9579;49.488;8.226;2023-04-25T09:49:06;15.40;92.10
18894;DHT22;9579;49.488;8.226;2023-04-25T09:51:57;15.40;91.80
18894;DHT22;9579;49.488;8.226;2023-04-25T09:54:45;15.30;91.80
18894;DHT22;9579;49.488;8.226;2023-04-25T09:57:33;15.00;91.40
18894;DHT22;9579;49.488;8.226;2023-04-25T10:00:21;14.90;91.90
18894;DHT22;9579;49.488;8.226;2023-04-25T10:03:08;14.80;92.40
18894;DHT22;9579;49.488;8.226;2023-04-25T10:05:57;14.80;92.80
18894;DHT22;9579;49.488;8.226;2023-04-25T10:08:50;14.60;92.40
18894;DHT22;9579;49.488;8.226;2023-04-25T10:11:38;14.50;92.40
18894;DHT22;9579;49.488;8.226;2023-04-25T10:45:54;14.90;92.00
18894;DHT22;9579;49.488;8.226;2023-04-25T10:48:46;15.40;91.90
18894;DHT22;9579;49.488;8.226;2023-04-25T10:51:34;15.90;91.30
18894;DHT22;9579;49.488;8.226;2023-04-25T10:54:23;16.70;90.30
18894;DHT22;9579;49.488;8.226;2023-04-25T10:57:29;16.10;89.00
18894;DHT22;9579;49.488;8.226;2023-04-25T11:00:19;15.90;89.30
18894;DHT22;9579;49.488;8.226;2023-04-25T11:03:09;15.60;89.40
18894;DHT22;9579;49.488;8.226;2023-04-25T11:05:56;15.40;90.40
18894;DHT22;9579;49.488;8.226;2023-04-25T11:08:48;15.20;90.20
18894;DHT22;9579;49.488;8.226;2023-04-25T11:11:36;15.10;90.70
18894;DHT22;9579;49.488;8.226;2023-04-25T11:14:24;15.10;90.70
18894;DHT22;9579;49.488;8.226;2023-04-25T11:17:11;15.00;91.20
18894;DHT22;9579;49.488;8.226;2023-04-25T11:20:06;14.90;91.20
18894;DHT22;9579;49.488;8.226;2023-04-25T11:22:58;14.90;91.80
18894;DHT22;9579;49.488;8.226;2023-04-25T11:25:45;15.10;91.30
18894;DHT22;9579;49.488;8.226;2023-04-25T11:38:35;15.00;91.00
18894;DHT22;9579;49.488;8.226;2023-04-25T11:41:22;15.10;91.60
18894;DHT22;9579;49.488;8.226;2023-04-25T11:44:09;15.30;91.60
18894;DHT22;9579;49.488;8.226;2023-04-25T11:46:56;15.40;91.40
18894;DHT22;9579;49.488;8.226;2023-04-25T11:49:43;15.50;90.90
18894;DHT22;9579;49.488;8.226;2023-04-25T11:52:38;15.50;90.50
18894;DHT22;9579;49.488;8.226;2023-04-25T11:55:30;15.70;90.80
18894;DHT22;9579;49.488;8.226;2023-04-25T11:58:17;15.20;91.20
18894;DHT22;9579;49.488;8.226;2023-04-25T12:01:05;15.30;90.70
18894;DHT22;9579;49.488;8.226;2023-04-25T12:03:52;15.40;91.30
18894;DHT22;9579;49.488;8.226;2023-04-25T12:06:40;15.50;91.00
18894;DHT22;9579;49.488;8.226;2023-04-25T12:09:31;16.30;90.90
18894;DHT22;9579;49.488;8.226;2023-04-25T12:12:19;15.50;90.20
18894;DHT22;9579;49.488;8.226;2023-04-25T12:15:11;15.30;90.90
18894;DHT22;9579;49.488;8.226;2023-04-25T12:18:02;15.20;90.60
18894;DHT22;9579;49.488;8.226;2023-04-25T12:20:49;15.20;90.60
18894;DHT22;9579;49.488;8.226;2023-04-25T12:23:38;15.50;90.70
18894;DHT22;9579;49.488;8.226;2023-04-25T12:26:46;15.40;91.30
18894;DHT22;9579;49.488;8.226;2023-04-25T12:29:34;15.40;90.50
18894;DHT22;9579;49.488;8.226;2023-04-25T12:32:21;15.60;90.00
18894;DHT22;9579;49.488;8.226;2023-04-25T12:35:09;15.60;89.10
18894;DHT22;9579;49.488;8.226;2023-04-25T12:37:56;15.80;90.00
18894;DHT22;9579;49.488;8.226;2023-04-25T12:40:43;15.80;89.70
18894;DHT22;9579;49.488;8.226;2023-04-25T12:43:30;15.90;89.30
18894;DHT22;9579;49.488;8.226;2023-04-25T12:46:18;15.80;89.10
18894;DHT22;9579;49.488;8.226;2023-04-25T12:49:06;15.80;89.30
18894;DHT22;9579;49.488;8.226;2023-04-25T12:51:54;15.80;89.20
18894;DHT22;9579;49.488;8.226;2023-04-25T12:54:41;16.00;88.80
18894;DHT22;9579;49.488;8.226;2023-04-25T12:57:28;16.40;88.10
18894;DHT22;9579;49.488;8.226;2023-04-25T13:00:15;16.50;88.20
18894;DHT22;9579;49.488;8.226;2023-04-25T13:03:06;16.60;87.60
18894;DHT22;9579;49.488;8.226;2023-04-25T13:05:54;16.90;85.10
18894;DHT22;9579;49.488;8.226;2023-04-25T13:08:42;16.90;85.70
18894;DHT22;9579;49.488;8.226;2023-04-25T13:11:29;16.90;85.40
18894;DHT22;9579;49.488;8.226;2023-04-25T13:14:16;16.90;85.80
18894;DHT22;9579;49.488;8.226;2023-04-25T13:17:03;16.80;85.80
18894;DHT22;9579;49.488;8.226;2023-04-25T13:19:51;16.70;85.80
18894;DHT22;9579;49.488;8.226;2023-04-25T13:22:39;16.50;85.70
18894;DHT22;9579;49.488;8.226;2023-04-25T13:25:26;16.40;86.60
18894;DHT22;9579;49.488;8.226;2023-04-25T13:28:14;16.30;86.90
18894;DHT22;9579;49.488;8.226;2023-04-25T13:31:01;15.80;87.40
18894;DHT22;9579;49.488;8.226;2023-04-25T13:33:48;15.80;88.20
18894;DHT22;9579;49.488;8.226;2023-04-25T13:36:37;16.00;87.90
18894;DHT22;9579;49.488;8.226;2023-04-25T13:39:24;16.10;86.40
18894;DHT22;9579;49.488;8.226;2023-04-25T13:42:11;16.50;86.50
18894;DHT22;9579;49.488;8.226;2023-04-25T13:44:58;16.20;85.50
18894;DHT22;9579;49.488;8.226;2023-04-25T13:47:45;16.40;85.80
18894;DHT22;9579;49.488;8.226;2023-04-25T13:50:32;16.20;84.90
18894;DHT22;9579;49.488;8.226;2023-04-25T13:53:20;16.00;84.70
18894;DHT22;9579;49.488;8.226;2023-04-25T13:56:08;16.00;88.10
18894;DHT22;9579;49.488;8.226;2023-04-25T13:58:55;15.70;91.00
18894;DHT22;9579;49.488;8.226;2023-04-25T14:01:42;15.60;91.40
18894;DHT22;9579;49.488;8.226;2023-04-25T14:04:29;15.50;91.00
18894;DHT22;9579;49.488;8.226;2023-04-25T14:07:16;16.10;90.80
18894;DHT22;9579;49.488;8.226;2023-04-25T14:10:07;15.40;89.60
18894;DHT22;9579;49.488;8.226;2023-04-25T14:12:54;15.30;88.10
18894;DHT22;9579;49.488;8.226;2023-04-25T14:15:41;15.30;88.50
18894;DHT22;9579;49.488;8.226;2023-04-25T14:18:28;15.30;88.70
18894;DHT22;9579;49.488;8.226;2023-04-25T14:21:15;15.40;88.10
18894;DHT22;9579;49.488;8.226;2023-04-25T14:24:02;15.20;88.10
18894;DHT22;9579;49.488;8.226;2023-04-25T14:26:52;15.20;88.50
18894;DHT22;9579;49.488;8.226;2023-04-25T14:29:48;15.20;87.40
18894;DHT22;9579;49.488;8.226;2023-04-25T14:32:36;15.10;86.60
18894;DHT22;9579;49.488;8.226;2023-04-25T14:35:23;15.20;85.30
18894;DHT22;9579;49.488;8.226;2023-04-25T14:38:10;15.20;85.80
18894;DHT22;9579;49.488;8.226;2023-04-25T14:40:57;15.30;85.00
18894;DHT22;9579;49.488;8.226;2023-04-25T14:43:45;15.40;84.90
18894;DHT22;9579;49.488;8.226;2023-04-25T14:46:32;15.60;86.30
18894;DHT22;9579;49.488;8.226;2023-04-25T14:49:20;16.00;86.10
18894;DHT22;9579;49.488;8.226;2023-04-25T14:52:07;15.80;83.70
18894;DHT22;9579;49.488;8.226;2023-04-25T14:54:54;16.10;82.40
18894;DHT22;9579;49.488;8.226;2023-04-25T14:57:41;16.30;81.90
18894;DHT22;9579;49.488;8.226;2023-04-25T15:00:29;16.40;81.70
18894;DHT22;9579;49.488;8.226;2023-04-25T15:03:17;16.40;81.10
18894;DHT22;9579;49.488;8.226;2023-04-25T15:06:05;16.20;79.80
18894;DHT22;9579;49.488;8.226;2023-04-25T15:08:52;16.10;81.10
18894;DHT22;9579;49.488;8.226;2023-04-25T15:11:39;16.20;81.30
18894;DHT22;9579;49.488;8.226;2023-04-25T15:14:26;16.70;82.60
18894;DHT22;9579;49.488;8.226;2023-04-25T15:17:14;16.50;83.50
18894;DHT22;9579;49.488;8.226;2023-04-25T15:20:02;16.10;80.90
18894;DHT22;9579;49.488;8.226;2023-04-25T15:22:50;16.00;79.90
18894;DHT22;9579;49.488;8.226;2023-04-25T15:25:37;16.40;81.20
18894;DHT22;9579;49.488;8.226;2023-04-25T15:28:24;15.80;80.50
18894;DHT22;9579;49.488;8.226;2023-04-25T15:31:11;15.70;80.20
18894;DHT22;9579;49.488;8.226;2023-04-25T15:34:00;15.60;80.10
18894;DHT22;9579;49.488;8.226;2023-04-25T15:36:47;16.20;80.80
18894;DHT22;9579;49.488;8.226;2023-04-25T15:39:34;15.40;81.30
18894;DHT22;9579;49.488;8.226;2023-04-25T15:42:21;15.60;80.80
18894;DHT22;9579;49.488;8.226;2023-04-25T15:45:10;15.60;80.20
18894;DHT22;9579;49.488;8.226;2023-04-25T15:47:57;15.20;80.10
18894;DHT22;9579;49.488;8.226;2023-04-25T15:50:46;15.20;80.50
18894;DHT22;9579;49.488;8.226;2023-04-25T15:53:33;15.20;82.10
18894;DHT22;9579;49.488;8.226;2023-04-25T15:56:20;15.30;80.70
18894;DHT22;9579;49.488;8.226;2023-04-25T15:59:08;15.40;81.40
18894;DHT22;9579;49.488;8.226;2023-04-25T16:01:55;15.70;82.30
18894;DHT22;9579;49.488;8.226;2023-04-25T16:07:52;15.00;80.50
